createdAt,value
2022-07-28T00:01:49.101Z,18.87
2022-07-28T00:04:20.396Z,18.85
2022-07-28T00:06:51.816Z,18.83
2022-07-28T00:09:23.118Z,18.80
2022-07-28T00:11:55.172Z,18.76
2022-07-28T00:14:29.018Z,18.73
2022-07-28T00:17:01.213Z,18.71
2022-07-28T00:19:32.643Z,18.70
2022-07-28T00:22:04.202Z,18.68
2022-07-28T00:24:38.055Z,18.65
2022-07-28T00:27:09.364Z,18.62
2022-07-28T00:29:50.068Z,18.59
2022-07-28T00:32:22.468Z,18.56
2022-07-28T00:34:54.119Z,18.53
2022-07-28T00:37:25.805Z,18.50
2022-07-28T00:39:57.599Z,18.47
2022-07-28T00:42:29.143Z,18.43
2022-07-28T00:45:00.459Z,18.39
2022-07-28T00:47:34.045Z,18.35
2022-07-28T00:50:06.288Z,18.33
2022-07-28T00:52:37.914Z,18.28
2022-07-28T00:55:10.566Z,18.24
2022-07-28T00:57:43.386Z,18.18
2022-07-28T01:00:16.090Z,18.11
2022-07-28T01:02:47.786Z,18.05
2022-07-28T01:05:44.057Z,18.00
2022-07-28T01:08:22.135Z,17.99
2022-07-28T01:11:02.561Z,17.96
2022-07-28T01:13:51.354Z,17.93
2022-07-28T01:16:23.683Z,17.87
2022-07-28T01:18:59.433Z,17.84
2022-07-28T01:21:31.528Z,17.81
2022-07-28T01:24:11.087Z,17.76
2022-07-28T01:26:59.627Z,17.70
2022-07-28T01:30:02.920Z,17.63
2022-07-28T01:32:41.697Z,17.54
2022-07-28T01:35:22.101Z,17.47
2022-07-28T01:37:56.550Z,17.39
2022-07-28T01:40:30.976Z,17.34
2022-07-28T01:43:07.540Z,17.29
2022-07-28T01:45:42.469Z,17.22
2022-07-28T01:48:15.578Z,17.18
2022-07-28T01:50:48.429Z,17.15
2022-07-28T01:53:22.042Z,17.13
2022-07-28T01:55:54.553Z,17.08
2022-07-28T01:58:30.317Z,17.04
2022-07-28T02:01:03.839Z,16.98
2022-07-28T02:03:36.523Z,16.91
2022-07-28T02:06:10.134Z,16.87
2022-07-28T02:08:42.864Z,16.84
2022-07-28T02:11:31.934Z,16.81
2022-07-28T02:14:04.237Z,16.74
2022-07-28T02:16:36.324Z,16.71
2022-07-28T02:19:08.123Z,16.67
2022-07-28T02:21:39.781Z,16.59
2022-07-28T02:24:13.979Z,16.55
2022-07-28T02:26:50.910Z,16.51
2022-07-28T02:29:49.825Z,16.45
2022-07-28T02:32:26.925Z,16.39
2022-07-28T02:35:04.871Z,16.33
2022-07-28T02:37:41.169Z,16.29
2022-07-28T02:40:16.772Z,16.25
2022-07-28T02:42:50.991Z,16.21
2022-07-28T02:45:27.593Z,16.19
2022-07-28T02:48:03.332Z,16.16
2022-07-28T02:50:34.695Z,16.15
2022-07-28T02:53:14.904Z,16.14
2022-07-28T02:55:50.671Z,16.11
2022-07-28T02:58:25.085Z,16.09
2022-07-28T03:00:57.440Z,16.07
2022-07-28T03:03:30.563Z,16.07
2022-07-28T03:06:04.469Z,16.05
2022-07-28T03:08:36.040Z,15.99
2022-07-28T03:11:12.237Z,15.98
2022-07-28T03:13:44.286Z,15.98
2022-07-28T03:16:16.735Z,15.99
2022-07-28T03:18:48.169Z,16.01
2022-07-28T03:21:19.449Z,16.04
2022-07-28T03:23:53.368Z,16.07
2022-07-28T03:26:32.135Z,16.05
2022-07-28T03:29:04.350Z,16.05
2022-07-28T03:31:37.207Z,16.05
2022-07-28T03:34:11.404Z,16.07
2022-07-28T03:36:46.964Z,16.09
2022-07-28T03:39:18.833Z,16.11
2022-07-28T03:41:50.785Z,16.13
2022-07-28T03:44:28.817Z,16.13
2022-07-28T03:47:00.465Z,16.15
2022-07-28T03:49:31.819Z,16.17
2022-07-28T03:52:03.169Z,16.22
2022-07-28T03:54:34.513Z,16.29
2022-07-28T03:57:06.030Z,16.40
2022-07-28T03:59:37.477Z,16.54
2022-07-28T04:02:09.498Z,16.69
2022-07-28T04:04:40.880Z,16.88
2022-07-28T04:07:13.960Z,17.09
2022-07-28T04:09:45.643Z,17.28
2022-07-28T04:12:17.110Z,17.47
2022-07-28T04:14:48.760Z,17.68
2022-07-28T04:17:20.458Z,17.92
2022-07-28T04:19:52.141Z,18.14
2022-07-28T04:22:24.298Z,18.41
2022-07-28T04:24:54.481Z,18.71
2022-07-28T04:27:26.236Z,19.06
2022-07-28T04:29:58.544Z,19.48
2022-07-28T04:32:32.254Z,19.90
2022-07-28T04:35:03.654Z,20.33
2022-07-28T04:37:35.831Z,20.73
2022-07-28T04:40:14.510Z,21.14
2022-07-28T04:42:47.554Z,21.55
2022-07-28T04:45:18.930Z,21.89
2022-07-28T04:48:16.987Z,22.24
2022-07-28T04:50:51.712Z,22.60
2022-07-28T04:53:24.365Z,22.91
2022-07-28T04:55:58.882Z,23.27
2022-07-28T04:58:30.842Z,23.64
2022-07-28T05:01:10.888Z,23.99
2022-07-28T05:03:50.234Z,24.31
2022-07-28T05:06:22.659Z,24.64
2022-07-28T05:08:52.266Z,24.94
2022-07-28T05:11:28.529Z,25.27
2022-07-28T05:14:00.197Z,25.71
2022-07-28T05:16:34.440Z,26.00
2022-07-28T05:19:06.266Z,26.29
2022-07-28T05:21:38.809Z,26.54
2022-07-28T05:24:11.208Z,26.83
2022-07-28T05:26:44.408Z,27.09
2022-07-28T05:29:17.245Z,27.37
2022-07-28T05:31:48.569Z,27.62
2022-07-28T05:34:21.729Z,27.87
2022-07-28T05:36:53.096Z,28.11
2022-07-28T05:39:25.135Z,28.36
2022-07-28T05:41:56.541Z,28.59
2022-07-28T05:44:27.929Z,28.78
2022-07-28T05:46:59.329Z,28.97
2022-07-28T05:49:31.604Z,29.14
2022-07-28T05:52:03.460Z,29.32
2022-07-28T05:54:34.734Z,29.55
2022-07-28T05:57:06.354Z,29.79
2022-07-28T05:59:37.756Z,30.04
2022-07-28T06:02:11.970Z,30.26
2022-07-28T06:04:44.365Z,30.54
2022-07-28T06:07:16.294Z,30.83
2022-07-28T06:10:01.574Z,31.14
2022-07-28T06:12:44.127Z,31.40
2022-07-28T06:15:22.933Z,31.62
2022-07-28T06:17:56.002Z,31.91
2022-07-28T06:20:28.890Z,32.23
2022-07-28T06:23:00.518Z,32.56
2022-07-28T06:25:32.681Z,32.89
2022-07-28T06:28:05.074Z,33.21
2022-07-28T06:30:37.009Z,33.48
2022-07-28T06:33:11.691Z,33.76
2022-07-28T06:35:48.268Z,34.02
2022-07-28T06:38:23.788Z,34.22
2022-07-28T06:40:55.410Z,34.41
2022-07-28T06:43:26.900Z,34.57
2022-07-28T06:45:58.450Z,34.65
2022-07-28T06:48:30.148Z,34.75
2022-07-28T06:51:02.431Z,34.87
2022-07-28T06:53:34.722Z,34.96
2022-07-28T06:56:08.440Z,35.06
2022-07-28T06:59:11.037Z,35.13
2022-07-28T07:01:42.811Z,35.18
2022-07-28T07:04:14.854Z,35.20
2022-07-28T07:07:03.817Z,35.19
2022-07-28T07:09:47.304Z,35.10
2022-07-28T07:12:18.885Z,35.05
2022-07-28T07:14:50.371Z,34.91
2022-07-28T07:17:22.006Z,34.75
2022-07-28T07:19:53.970Z,34.62
2022-07-28T07:22:25.669Z,34.49
2022-07-28T07:24:57.892Z,34.38
2022-07-28T07:27:29.339Z,34.21
2022-07-28T07:30:01.036Z,34.03
2022-07-28T07:32:32.728Z,33.91
2022-07-28T07:35:04.366Z,33.82
2022-07-28T07:37:35.779Z,33.75
2022-07-28T07:40:09.640Z,33.67
2022-07-28T07:43:07.434Z,33.61
2022-07-28T07:45:39.202Z,33.53
2022-07-28T07:48:12.171Z,33.46
2022-07-28T07:50:44.330Z,33.41
2022-07-28T07:53:16.032Z,33.34
2022-07-28T07:56:04.794Z,33.29
2022-07-28T07:58:39.173Z,33.25
2022-07-28T08:01:12.903Z,33.25
2022-07-28T08:03:45.002Z,33.25
2022-07-28T08:06:26.595Z,33.23
2022-07-28T08:08:58.661Z,33.18
2022-07-28T08:11:31.371Z,33.06
2022-07-28T08:14:03.020Z,32.85
2022-07-28T08:16:34.866Z,32.65
2022-07-28T08:19:06.463Z,32.44
2022-07-28T08:21:40.370Z,32.24
2022-07-28T08:24:30.271Z,32.09
2022-07-28T08:27:05.536Z,32.07
2022-07-28T08:29:40.098Z,32.08
2022-07-28T08:32:19.379Z,32.07
2022-07-28T08:35:15.908Z,32.06
2022-07-28T08:37:47.042Z,32.04
2022-07-28T08:40:39.807Z,32.03
2022-07-28T08:46:51.410Z,31.84
2022-07-28T08:50:10.690Z,31.77
2022-07-28T08:52:44.805Z,31.69
2022-07-28T08:55:19.798Z,31.64
2022-07-28T08:57:54.611Z,31.63
2022-07-28T09:00:30.827Z,31.56
2022-07-28T09:03:17.974Z,31.43
2022-07-28T09:05:50.484Z,31.22
2022-07-28T09:08:35.238Z,31.08
2022-07-28T09:11:18.722Z,30.97
2022-07-28T09:13:54.014Z,30.94
2022-07-28T09:16:33.813Z,30.95
2022-07-28T09:19:05.648Z,30.97
2022-07-28T09:21:40.575Z,31.00
2022-07-28T09:24:32.925Z,31.01
2022-07-28T09:27:08.183Z,30.92
2022-07-28T09:29:47.112Z,30.80
2022-07-28T09:32:22.364Z,30.76
2022-07-28T09:34:54.896Z,30.77
2022-07-28T09:37:28.572Z,30.75
2022-07-28T09:40:13.966Z,30.77
2022-07-28T09:43:16.007Z,30.80
2022-07-28T09:45:48.975Z,30.83
2022-07-28T09:48:20.714Z,30.81
2022-07-28T09:50:52.450Z,30.78
2022-07-28T09:53:28.757Z,30.71
2022-07-28T09:56:03.443Z,30.65
2022-07-28T09:58:38.307Z,30.59
2022-07-28T10:01:13.568Z,30.59
2022-07-28T10:03:44.338Z,30.60
2022-07-28T10:06:25.518Z,30.61
2022-07-28T10:09:00.418Z,30.60
2022-07-28T10:11:34.373Z,30.53
2022-07-28T10:14:09.856Z,30.47
2022-07-28T10:16:52.870Z,30.45
2022-07-28T10:19:24.716Z,30.42
2022-07-28T10:21:57.775Z,30.40
2022-07-28T10:24:32.571Z,30.38
2022-07-28T10:27:05.883Z,30.32
2022-07-28T10:29:39.466Z,30.30
2022-07-28T10:32:15.861Z,30.28
2022-07-28T10:34:57.288Z,30.27
2022-07-28T10:37:29.852Z,30.26
2022-07-28T10:40:14.428Z,30.22
2022-07-28T10:42:46.316Z,30.16
2022-07-28T10:45:41.970Z,30.10
2022-07-28T10:48:20.578Z,30.03
2022-07-28T10:50:56.739Z,29.94
2022-07-28T10:53:50.382Z,29.87
2022-07-28T10:56:31.349Z,29.77
2022-07-28T10:59:11.510Z,29.70
2022-07-28T11:01:48.266Z,29.60
2022-07-28T11:04:55.551Z,29.51
2022-07-28T11:07:38.164Z,29.43
2022-07-28T11:10:45.782Z,29.38
2022-07-28T11:13:36.024Z,29.33
2022-07-28T11:16:25.020Z,29.34
2022-07-28T11:19:40.716Z,29.31
2022-07-28T11:22:28.468Z,29.25
2022-07-28T11:25:22.449Z,29.19
2022-07-28T11:28:07.893Z,29.12
2022-07-28T11:30:58.381Z,29.02
2022-07-28T11:33:56.974Z,28.90
2022-07-28T11:37:02.719Z,28.86
2022-07-28T11:39:42.715Z,28.83
2022-07-28T11:42:35.930Z,28.78
2022-07-28T11:46:04.401Z,28.73
2022-07-28T11:48:43.014Z,28.68
2022-07-28T11:51:16.236Z,28.58
2022-07-28T11:53:49.989Z,28.54
2022-07-28T11:56:29.539Z,28.51
2022-07-28T11:59:06.916Z,28.50
2022-07-28T12:01:38.900Z,28.51
2022-07-28T12:04:16.036Z,28.45
2022-07-28T12:06:53.737Z,28.34
2022-07-28T12:09:42.793Z,28.27
2022-07-28T12:12:18.896Z,28.26
2022-07-28T12:14:53.495Z,28.26
2022-07-28T12:17:33.299Z,28.17
2022-07-28T12:20:14.093Z,28.05
2022-07-28T12:23:03.852Z,27.92
2022-07-28T12:25:43.951Z,27.82
2022-07-28T12:28:24.117Z,27.75
2022-07-28T12:30:57.150Z,27.68
2022-07-28T12:33:29.895Z,27.56
2022-07-28T12:36:03.495Z,27.46
2022-07-28T12:38:44.455Z,27.39
2022-07-28T12:41:18.716Z,27.37
2022-07-28T12:43:54.582Z,27.37
2022-07-28T12:46:28.729Z,27.37
2022-07-28T12:49:01.916Z,27.39
2022-07-28T12:51:39.033Z,27.38
2022-07-28T12:54:13.560Z,27.35
2022-07-28T12:56:50.570Z,27.31
2022-07-28T12:59:22.731Z,27.24
2022-07-28T13:01:56.089Z,27.19
2022-07-28T13:04:46.062Z,27.15
2022-07-28T13:07:26.207Z,27.11
2022-07-28T13:10:12.268Z,27.08
2022-07-28T13:12:45.236Z,27.12
2022-07-28T13:15:19.665Z,27.16
2022-07-28T13:17:56.345Z,27.20
2022-07-28T13:20:28.472Z,27.22
2022-07-28T13:23:00.556Z,27.21
2022-07-28T13:25:58.705Z,27.17
2022-07-28T13:28:51.208Z,27.14
2022-07-28T13:31:22.894Z,27.10
2022-07-28T13:33:57.750Z,27.07
2022-07-28T13:36:29.485Z,27.07
2022-07-28T13:39:01.707Z,27.09
2022-07-28T13:41:56.166Z,27.09
2022-07-28T13:44:26.411Z,27.10
2022-07-28T13:47:06.006Z,27.10
2022-07-28T13:50:57.841Z,27.10
2022-07-28T13:58:15.855Z,27.11
2022-07-28T14:00:48.212Z,27.10
2022-07-28T14:03:20.609Z,27.09
2022-07-28T14:05:52.903Z,27.07
2022-07-28T14:08:25.772Z,27.07
2022-07-28T14:10:59.247Z,27.07
2022-07-28T14:13:31.982Z,27.05
2022-07-28T14:16:14.367Z,27.03
2022-07-28T14:19:38.600Z,27.03
2022-07-28T14:22:29.488Z,27.03
2022-07-28T14:25:01.050Z,26.98
2022-07-28T14:27:32.752Z,26.94
2022-07-28T14:30:05.102Z,26.88
2022-07-28T14:32:38.914Z,26.86
2022-07-28T14:35:11.406Z,26.84
2022-07-28T14:40:35.250Z,26.81
2022-07-28T14:43:11.830Z,26.79
2022-07-28T14:46:00.540Z,26.78
2022-07-28T14:48:37.772Z,26.75
2022-07-28T14:51:13.279Z,26.72
2022-07-28T14:53:52.745Z,26.67
2022-07-28T14:56:24.986Z,26.63
2022-07-28T14:58:56.662Z,26.61
2022-07-28T15:01:28.169Z,26.59
2022-07-28T15:04:10.286Z,26.57
2022-07-28T15:06:44.160Z,26.56
2022-07-28T15:09:43.428Z,26.56
2022-07-28T15:12:37.786Z,26.53
2022-07-28T15:15:11.674Z,26.53
2022-07-28T15:17:45.037Z,26.53
2022-07-28T15:20:18.696Z,26.54
2022-07-28T15:22:50.279Z,26.54
2022-07-28T15:25:21.735Z,26.53
2022-07-28T15:27:54.436Z,26.50
2022-07-28T15:30:26.090Z,26.48
2022-07-28T15:33:05.810Z,26.44
2022-07-28T15:36:03.402Z,26.42
2022-07-28T15:38:35.521Z,26.39
2022-07-28T15:41:08.598Z,26.38
2022-07-28T15:43:40.241Z,26.35
2022-07-28T15:46:13.452Z,26.32
2022-07-28T15:48:48.083Z,26.30
2022-07-28T15:51:22.696Z,26.27
2022-07-28T15:54:05.259Z,26.23
2022-07-28T15:56:38.461Z,26.20
2022-07-28T15:59:11.479Z,26.17
2022-07-28T16:01:45.690Z,26.12
2022-07-28T16:04:18.293Z,26.07
2022-07-28T16:10:51.694Z,26.00
2022-07-28T16:13:35.969Z,25.97
2022-07-28T16:16:24.341Z,25.94
2022-07-28T16:18:59.189Z,25.92
2022-07-28T16:22:41.135Z,25.91
2022-07-28T16:25:16.655Z,25.90
2022-07-28T16:27:51.569Z,25.88
2022-07-28T16:30:21.629Z,25.85
2022-07-28T16:32:53.256Z,25.82
2022-07-28T16:35:26.349Z,25.80
2022-07-28T16:38:06.270Z,25.78
2022-07-28T16:40:37.901Z,25.76
2022-07-28T16:43:10.097Z,25.76
2022-07-28T16:45:42.689Z,25.74
2022-07-28T16:48:17.968Z,25.71
2022-07-28T16:50:49.283Z,25.67
2022-07-28T16:53:20.691Z,25.64
2022-07-28T16:55:53.169Z,25.63
2022-07-28T16:58:32.292Z,25.63
2022-07-28T17:01:09.315Z,25.62
2022-07-28T17:03:41.738Z,25.60
2022-07-28T17:06:13.405Z,25.59
2022-07-28T17:08:50.756Z,25.57
2022-07-28T17:11:22.594Z,25.53
2022-07-28T17:13:54.463Z,25.49
2022-07-28T17:16:26.404Z,25.47
2022-07-28T17:18:58.404Z,25.45
2022-07-28T17:21:30.378Z,25.41
2022-07-28T17:24:02.148Z,25.38
2022-07-28T17:29:27.058Z,25.31
2022-07-28T17:31:58.699Z,25.27
2022-07-28T17:34:30.410Z,25.25
2022-07-28T17:37:02.834Z,25.20
2022-07-28T17:39:34.637Z,25.17
2022-07-28T17:42:06.703Z,25.14
2022-07-28T17:44:38.868Z,25.10
2022-07-28T17:47:11.079Z,25.07
2022-07-28T17:49:45.489Z,25.03
2022-07-28T17:52:17.210Z,24.98
2022-07-28T17:55:07.193Z,24.93
2022-07-28T17:57:39.691Z,24.88
2022-07-28T18:00:14.006Z,24.85
2022-07-28T18:02:48.357Z,24.80
2022-07-28T18:05:20.709Z,24.74
2022-07-28T18:07:56.048Z,24.68
2022-07-28T18:10:30.545Z,24.63
2022-07-28T18:13:01.993Z,24.58
2022-07-28T18:15:34.409Z,24.52
2022-07-28T18:18:06.903Z,24.46
2022-07-28T18:20:39.864Z,24.38
2022-07-28T18:23:11.680Z,24.32
2022-07-28T18:25:45.377Z,24.26
2022-07-28T18:28:19.431Z,24.19
2022-07-28T18:30:51.970Z,24.13
2022-07-28T18:33:25.766Z,24.07
2022-07-28T18:35:59.769Z,23.99
2022-07-28T18:38:32.232Z,23.92
2022-07-28T18:41:03.793Z,23.84
2022-07-28T18:43:35.202Z,23.77
2022-07-28T18:46:09.093Z,23.70
2022-07-28T18:48:40.700Z,23.65
2022-07-28T18:51:12.374Z,23.60
2022-07-28T18:53:43.798Z,23.55
2022-07-28T18:56:15.209Z,23.49
2022-07-28T18:58:46.739Z,23.41
2022-07-28T19:01:18.586Z,23.33
2022-07-28T19:03:50.045Z,23.23
2022-07-28T19:06:21.941Z,23.15
2022-07-28T19:08:53.918Z,23.07
2022-07-28T19:11:25.716Z,23.01
2022-07-28T19:13:57.273Z,22.94
2022-07-28T19:16:29.018Z,22.86
2022-07-28T19:19:00.331Z,22.78
2022-07-28T19:21:32.415Z,22.71
2022-07-28T19:24:04.311Z,22.63
2022-07-28T19:26:35.918Z,22.56
2022-07-28T19:29:07.740Z,22.49
2022-07-28T19:31:41.652Z,22.42
2022-07-28T19:34:37.114Z,22.34
2022-07-28T19:37:08.680Z,22.25
2022-07-28T19:39:51.966Z,22.18
2022-07-28T19:42:23.523Z,22.11
2022-07-28T19:44:56.145Z,22.04
2022-07-28T19:47:27.910Z,21.99
2022-07-28T19:49:59.354Z,21.96
2022-07-28T19:52:30.826Z,21.91
2022-07-28T19:55:04.192Z,21.89
2022-07-28T19:57:36.753Z,21.87
2022-07-28T20:00:10.419Z,21.82
2022-07-28T20:02:45.989Z,21.76
2022-07-28T20:05:18.425Z,21.72
2022-07-28T20:07:50.237Z,21.69
2022-07-28T20:10:22.186Z,21.66
2022-07-28T20:12:53.779Z,21.64
2022-07-28T20:15:26.713Z,21.63
2022-07-28T20:17:58.627Z,21.63
2022-07-28T20:20:30.736Z,21.64
2022-07-28T20:23:05.020Z,21.66
2022-07-28T20:25:36.666Z,21.66
2022-07-28T20:28:08.555Z,21.65
2022-07-28T20:30:40.822Z,21.66
2022-07-28T20:33:12.613Z,21.69
2022-07-28T20:35:44.237Z,21.68
2022-07-28T20:38:15.987Z,21.66
2022-07-28T20:40:48.345Z,21.63
2022-07-28T20:43:20.055Z,21.59
2022-07-28T20:45:51.901Z,21.53
2022-07-28T20:48:23.716Z,21.48
2022-07-28T20:50:55.066Z,21.39
2022-07-28T20:53:26.691Z,21.31
2022-07-28T20:55:58.438Z,21.23
2022-07-28T20:58:30.073Z,21.16
2022-07-28T21:01:01.727Z,21.08
2022-07-28T21:03:33.244Z,21.00
2022-07-28T21:06:04.958Z,20.91
2022-07-28T21:08:38.368Z,20.83
2022-07-28T21:11:09.932Z,20.74
2022-07-28T21:13:41.712Z,20.66
2022-07-28T21:16:17.080Z,20.58
2022-07-28T21:18:48.573Z,20.51
2022-07-28T21:21:20.257Z,20.45
2022-07-28T21:23:52.128Z,20.38
2022-07-28T21:26:23.953Z,20.33
2022-07-28T21:32:04.930Z,20.20
2022-07-28T21:34:37.760Z,20.13
2022-07-28T21:37:11.960Z,20.07
2022-07-28T21:39:43.839Z,20.01
2022-07-28T21:42:15.156Z,19.99
2022-07-28T21:44:46.552Z,19.99
2022-07-28T21:47:18.132Z,20.00
2022-07-28T21:49:49.484Z,19.99
2022-07-28T21:52:22.064Z,19.98
2022-07-28T21:54:53.650Z,19.98
2022-07-28T21:57:25.445Z,19.96
2022-07-28T21:59:56.904Z,19.96
2022-07-28T22:02:28.325Z,19.96
2022-07-28T22:05:01.602Z,19.96
2022-07-28T22:07:36.397Z,19.95
2022-07-28T22:10:08.975Z,19.92
2022-07-28T22:12:40.588Z,19.90
2022-07-28T22:15:13.964Z,19.89
2022-07-28T22:17:46.050Z,19.87
2022-07-28T22:20:17.745Z,19.83
2022-07-28T22:22:49.053Z,19.80
2022-07-28T22:25:20.280Z,19.77
2022-07-28T22:27:51.555Z,19.74
2022-07-28T22:30:22.999Z,19.70
2022-07-28T22:32:54.352Z,19.67
2022-07-28T22:35:25.735Z,19.64
2022-07-28T22:37:57.205Z,19.59
2022-07-28T22:40:30.935Z,19.57
2022-07-28T22:43:02.368Z,19.55
2022-07-28T22:45:49.530Z,19.54
2022-07-28T22:48:22.836Z,19.52
2022-07-28T22:50:54.219Z,19.49
2022-07-28T22:53:26.138Z,19.49
2022-07-28T22:55:57.496Z,19.49
2022-07-28T22:58:49.331Z,19.47
2022-07-28T23:01:20.781Z,19.44
2022-07-28T23:03:52.306Z,19.42
2022-07-28T23:06:23.961Z,19.42
2022-07-28T23:08:55.475Z,19.39
2022-07-28T23:11:26.890Z,19.37
2022-07-28T23:13:58.305Z,19.36
2022-07-28T23:16:29.731Z,19.37
2022-07-28T23:19:01.243Z,19.35
2022-07-28T23:21:32.628Z,19.32
2022-07-28T23:24:04.130Z,19.29
2022-07-28T23:26:35.764Z,19.27
2022-07-28T23:29:07.195Z,19.22
2022-07-28T23:31:38.771Z,19.20
2022-07-28T23:34:10.295Z,19.19
2022-07-28T23:36:41.734Z,19.17
2022-07-28T23:39:14.360Z,19.14
2022-07-28T23:41:47.489Z,19.13
2022-07-28T23:44:19.129Z,19.11
2022-07-28T23:46:50.669Z,19.09
2022-07-28T23:49:22.154Z,19.05
2022-07-28T23:51:53.631Z,19.02
2022-07-28T23:54:24.974Z,18.99
2022-07-28T23:56:57.475Z,18.94
2022-07-28T23:59:28.894Z,18.91
